sensor_id;sensor_type;location;lat;lon;timestamp;temperature;humidity
4520;DHT22;2272;49.226;8.108;2023-04-06T08:16:19;7.00;99.90
4520;DHT22;2272;49.226;8.108;2023-04-06T08:18:46;7.20;99.90
4520;DHT22;2272;49.226;8.108;2023-04-06T08:21:12;7.40;99.90
4520;DHT22;2272;49.226;8.108;2023-04-06T08:23:39;7.50;99.90
4520;DHT22;2272;49.226;8.108;2023-04-06T08:26:06;7.70;99.90
4520;DHT22;2272;49.226;8.108;2023-04-06T08:28:33;7.80;99.90
4520;DHT22;2272;49.226;8.108;2023-04-06T08:31:03;8.00;99.90
4520;DHT22;2272;49.226;8.108;2023-04-06T08:33:33;8.20;99.90
4520;DHT22;2272;49.226;8.108;2023-04-06T08:36:07;8.40;99.90
4520;DHT22;2272;49.226;8.108;2023-04-06T08:38:35;8.50;99.90
4520;DHT22;2272;49.226;8.108;2023-04-06T08:41:07;8.70;99.90
4520;DHT22;2272;49.226;8.108;2023-04-06T08:43:41;8.90;99.90
4520;DHT22;2272;49.226;8.108;2023-04-06T08:46:10;9.10;99.90
4520;DHT22;2272;49.226;8.108;2023-04-06T08:48:41;9.20;99.90
4520;DHT22;2272;49.226;8.108;2023-04-06T08:51:08;9.30;99.90
4520;DHT22;2272;49.226;8.108;2023-04-06T08:53:35;9.50;99.90
4520;DHT22;2272;49.226;8.108;2023-04-06T08:56:02;9.70;99.90
4520;DHT22;2272;49.226;8.108;2023-04-06T08:58:32;9.70;99.90
4520;DHT22;2272;49.226;8.108;2023-04-06T09:01:01;9.70;99.90
4520;DHT22;2272;49.226;8.108;2023-04-06T09:03:30;10.20;99.90
4520;DHT22;2272;49.226;8.108;2023-04-06T09:05:59;10.20;99.90
4520;DHT22;2272;49.226;8.108;2023-04-06T09:08:26;10.40;99.90
4520;DHT22;2272;49.226;8.108;2023-04-06T09:10:53;10.50;99.90
4520;DHT22;2272;49.226;8.108;2023-04-06T09:13:19;10.70;99.70
4520;DHT22;2272;49.226;8.108;2023-04-06T09:15:46;11.20;99.30
4520;DHT22;2272;49.226;8.108;2023-04-06T09:18:13;11.10;99.20
4520;DHT22;2272;49.226;8.108;2023-04-06T09:20:40;11.10;99.50
4520;DHT22;2272;49.226;8.108;2023-04-06T09:23:17;11.40;98.70
4520;DHT22;2272;49.226;8.108;2023-04-06T09:25:44;11.40;97.40
4520;DHT22;2272;49.226;8.108;2023-04-06T09:28:11;11.50;97.70
4520;DHT22;2272;49.226;8.108;2023-04-06T09:30:47;11.60;97.20
4520;DHT22;2272;49.226;8.108;2023-04-06T09:33:22;11.80;96.70
4520;DHT22;2272;49.226;8.108;2023-04-06T09:35:49;11.80;95.30
4520;DHT22;2272;49.226;8.108;2023-04-06T09:38:17;11.90;95.20
4520;DHT22;2272;49.226;8.108;2023-04-06T09:40:49;12.10;94.60
4520;DHT22;2272;49.226;8.108;2023-04-06T09:43:24;12.30;95.00
4520;DHT22;2272;49.226;8.108;2023-04-06T09:45:51;12.50;93.80
4520;DHT22;2272;49.226;8.108;2023-04-06T09:48:20;12.50;93.10
4520;DHT22;2272;49.226;8.108;2023-04-06T09:50:49;12.50;92.40
4520;DHT22;2272;49.226;8.108;2023-04-06T09:53:19;12.50;91.80
4520;DHT22;2272;49.226;8.108;2023-04-06T09:55:49;12.70;92.10
4520;DHT22;2272;49.226;8.108;2023-04-06T09:58:18;12.80;91.40
4520;DHT22;2272;49.226;8.108;2023-04-06T10:00:56;13.00;91.00
4520;DHT22;2272;49.226;8.108;2023-04-06T10:03:31;13.10;90.30
4520;DHT22;2272;49.226;8.108;2023-04-06T10:06:05;13.10;89.80
4520;DHT22;2272;49.226;8.108;2023-04-06T10:08:39;13.00;88.70
4520;DHT22;2272;49.226;8.108;2023-04-06T10:11:07;13.10;89.90
4520;DHT22;2272;49.226;8.108;2023-04-06T11:56:39;17.70;85.20
4520;DHT22;2272;49.226;8.108;2023-04-06T11:59:05;17.90;86.20
4520;DHT22;2272;49.226;8.108;2023-04-06T12:01:32;17.80;84.20
4520;DHT22;2272;49.226;8.108;2023-04-06T12:03:59;17.80;84.90
4520;DHT22;2272;49.226;8.108;2023-04-06T12:06:26;17.90;84.30
4520;DHT22;2272;49.226;8.108;2023-04-06T12:08:52;18.00;83.20
4520;DHT22;2272;49.226;8.108;2023-04-06T12:11:19;18.00;82.90
4520;DHT22;2272;49.226;8.108;2023-04-06T12:13:51;18.10;83.50
4520;DHT22;2272;49.226;8.108;2023-04-06T12:18:45;18.50;67.30
4520;DHT22;2272;49.226;8.108;2023-04-06T12:21:12;18.60;70.00
4520;DHT22;2272;49.226;8.108;2023-04-06T12:23:39;18.40;72.40
4520;DHT22;2272;49.226;8.108;2023-04-06T12:26:05;18.20;73.10
4520;DHT22;2272;49.226;8.108;2023-04-06T12:28:32;18.10;72.50
4520;DHT22;2272;49.226;8.108;2023-04-06T12:31:00;18.20;71.70
4520;DHT22;2272;49.226;8.108;2023-04-06T12:33:27;18.10;71.20
4520;DHT22;2272;49.226;8.108;2023-04-06T12:35:58;18.20;72.00
4520;DHT22;2272;49.226;8.108;2023-04-06T12:38:25;18.20;71.90
4520;DHT22;2272;49.226;8.108;2023-04-06T12:40:52;18.20;72.30
4520;DHT22;2272;49.226;8.108;2023-04-06T12:43:19;18.20;71.90
4520;DHT22;2272;49.226;8.108;2023-04-06T12:45:46;18.20;71.70
4520;DHT22;2272;49.226;8.108;2023-04-06T12:48:14;18.20;72.10
4520;DHT22;2272;49.226;8.108;2023-04-06T12:50:41;18.30;72.20
4520;DHT22;2272;49.226;8.108;2023-04-06T12:53:08;18.30;70.80
4520;DHT22;2272;49.226;8.108;2023-04-06T12:55:34;18.30;71.60
4520;DHT22;2272;49.226;8.108;2023-04-06T12:58:01;18.40;71.50
4520;DHT22;2272;49.226;8.108;2023-04-06T13:00:28;18.60;54.00
4520;DHT22;2272;49.226;8.108;2023-04-06T13:02:56;18.80;53.30
4520;DHT22;2272;49.226;8.108;2023-04-06T13:05:24;18.70;53.20
4520;DHT22;2272;49.226;8.108;2023-04-06T13:07:50;18.80;53.20
4520;DHT22;2272;49.226;8.108;2023-04-06T13:10:17;18.80;52.60
4520;DHT22;2272;49.226;8.108;2023-04-06T13:12:44;18.70;53.20
4520;DHT22;2272;49.226;8.108;2023-04-06T13:15:11;18.60;53.40
4520;DHT22;2272;49.226;8.108;2023-04-06T13:17:38;18.60;52.90
4520;DHT22;2272;49.226;8.108;2023-04-06T13:20:05;18.50;53.00
4520;DHT22;2272;49.226;8.108;2023-04-06T13:22:34;18.60;52.60
4520;DHT22;2272;49.226;8.108;2023-04-06T13:25:00;18.50;52.80
4520;DHT22;2272;49.226;8.108;2023-04-06T13:27:27;18.50;53.90
4520;DHT22;2272;49.226;8.108;2023-04-06T13:29:55;18.50;53.70
4520;DHT22;2272;49.226;8.108;2023-04-06T13:32:22;18.70;54.20
4520;DHT22;2272;49.226;8.108;2023-04-06T13:34:48;18.80;53.80
4520;DHT22;2272;49.226;8.108;2023-04-06T13:37:15;18.90;53.80
4520;DHT22;2272;49.226;8.108;2023-04-06T13:39:43;18.80;52.70
4520;DHT22;2272;49.226;8.108;2023-04-06T13:42:10;18.50;52.50
4520;DHT22;2272;49.226;8.108;2023-04-06T13:44:37;18.50;52.60
4520;DHT22;2272;49.226;8.108;2023-04-06T13:47:04;18.40;53.10
4520;DHT22;2272;49.226;8.108;2023-04-06T13:49:31;18.40;53.60
4520;DHT22;2272;49.226;8.108;2023-04-06T13:51:57;18.10;53.60
4520;DHT22;2272;49.226;8.108;2023-04-06T13:54:26;17.90;53.40
4520;DHT22;2272;49.226;8.108;2023-04-06T13:56:54;17.70;53.90
4520;DHT22;2272;49.226;8.108;2023-04-06T13:59:22;17.60;54.00
4520;DHT22;2272;49.226;8.108;2023-04-06T14:01:48;17.40;54.20
4520;DHT22;2272;49.226;8.108;2023-04-06T14:04:15;17.30;54.50
4520;DHT22;2272;49.226;8.108;2023-04-06T14:06:44;17.10;54.60
4520;DHT22;2272;49.226;8.108;2023-04-06T14:09:11;17.00;55.10
4520;DHT22;2272;49.226;8.108;2023-04-06T14:11:38;16.90;55.40
4520;DHT22;2272;49.226;8.108;2023-04-06T14:14:07;16.90;55.90
4520;DHT22;2272;49.226;8.108;2023-04-06T14:16:36;16.90;56.40
4520;DHT22;2272;49.226;8.108;2023-04-06T14:19:03;16.90;56.90
4520;DHT22;2272;49.226;8.108;2023-04-06T14:21:30;16.80;57.10
4520;DHT22;2272;49.226;8.108;2023-04-06T14:23:57;16.70;57.30
4520;DHT22;2272;49.226;8.108;2023-04-06T14:26:24;16.80;57.30
4520;DHT22;2272;49.226;8.108;2023-04-06T14:28:51;16.90;57.30
4520;DHT22;2272;49.226;8.108;2023-04-06T14:31:20;16.80;56.90
4520;DHT22;2272;49.226;8.108;2023-04-06T14:33:46;16.70;57.50
4520;DHT22;2272;49.226;8.108;2023-04-06T14:36:13;16.70;58.10
4520;DHT22;2272;49.226;8.108;2023-04-06T14:38:40;16.60;58.10
4520;DHT22;2272;49.226;8.108;2023-04-06T14:41:14;16.40;57.90
4520;DHT22;2272;49.226;8.108;2023-04-06T14:43:52;16.30;58.80
4520;DHT22;2272;49.226;8.108;2023-04-06T14:46:21;16.20;59.10
4520;DHT22;2272;49.226;8.108;2023-04-06T14:48:48;16.30;59.50
4520;DHT22;2272;49.226;8.108;2023-04-06T14:51:15;16.30;59.50
4520;DHT22;2272;49.226;8.108;2023-04-06T14:53:42;16.40;60.10
4520;DHT22;2272;49.226;8.108;2023-04-06T14:56:09;16.30;60.20
4520;DHT22;2272;49.226;8.108;2023-04-06T14:58:36;16.20;61.40
4520;DHT22;2272;49.226;8.108;2023-04-06T15:01:02;16.10;62.30
4520;DHT22;2272;49.226;8.108;2023-04-06T15:03:31;16.00;61.60
4520;DHT22;2272;49.226;8.108;2023-04-06T15:05:58;16.00;62.00
4520;DHT22;2272;49.226;8.108;2023-04-06T15:08:25;16.00;62.20
4520;DHT22;2272;49.226;8.108;2023-04-06T15:10:52;16.00;61.20
4520;DHT22;2272;49.226;8.108;2023-04-06T15:13:20;15.90;61.80
4520;DHT22;2272;49.226;8.108;2023-04-06T15:15:46;15.70;61.30
4520;DHT22;2272;49.226;8.108;2023-04-06T15:18:24;15.30;61.80
4520;DHT22;2272;49.226;8.108;2023-04-06T15:20:52;14.90;63.10
4520;DHT22;2272;49.226;8.108;2023-04-06T15:23:19;14.60;63.20
4520;DHT22;2272;49.226;8.108;2023-04-06T15:25:46;14.30;62.80
4520;DHT22;2272;49.226;8.108;2023-04-06T15:28:13;14.10;63.80
4520;DHT22;2272;49.226;8.108;2023-04-06T15:30:40;14.10;65.20
4520;DHT22;2272;49.226;8.108;2023-04-06T15:33:07;14.10;65.90
4520;DHT22;2272;49.226;8.108;2023-04-06T15:35:34;14.10;65.70
4520;DHT22;2272;49.226;8.108;2023-04-06T15:38:06;14.00;66.70
4520;DHT22;2272;49.226;8.108;2023-04-06T15:40:33;13.80;65.10
4520;DHT22;2272;49.226;8.108;2023-04-06T15:43:01;13.50;65.50
4520;DHT22;2272;49.226;8.108;2023-04-06T15:45:29;13.40;65.80
4520;DHT22;2272;49.226;8.108;2023-04-06T15:47:57;13.40;66.20
4520;DHT22;2272;49.226;8.108;2023-04-06T15:50:23;13.50;66.60
4520;DHT22;2272;49.226;8.108;2023-04-06T15:52:52;13.50;67.30
4520;DHT22;2272;49.226;8.108;2023-04-06T15:55:21;13.60;68.50
4520;DHT22;2272;49.226;8.108;2023-04-06T15:57:48;13.40;70.50
4520;DHT22;2272;49.226;8.108;2023-04-06T16:00:15;13.30;71.60
4520;DHT22;2272;49.226;8.108;2023-04-06T16:02:42;12.90;71.80
4520;DHT22;2272;49.226;8.108;2023-04-06T16:05:10;12.70;71.50
4520;DHT22;2272;49.226;8.108;2023-04-06T16:07:37;12.50;72.80
4520;DHT22;2272;49.226;8.108;2023-04-06T16:10:06;12.40;72.90
4520;DHT22;2272;49.226;8.108;2023-04-06T16:12:34;12.40;72.30
4520;DHT22;2272;49.226;8.108;2023-04-06T16:15:02;12.50;72.40
4520;DHT22;2272;49.226;8.108;2023-04-06T16:17:28;12.40;73.70
4520;DHT22;2272;49.226;8.108;2023-04-06T16:19:56;12.50;73.20
4520;DHT22;2272;49.226;8.108;2023-04-06T16:22:23;12.50;74.00
4520;DHT22;2272;49.226;8.108;2023-04-06T16:24:49;12.40;74.60
4520;DHT22;2272;49.226;8.108;2023-04-06T16:27:16;12.30;75.40
4520;DHT22;2272;49.226;8.108;2023-04-06T16:29:44;12.20;76.60
4520;DHT22;2272;49.226;8.108;2023-04-06T16:32:12;12.10;76.10
4520;DHT22;2272;49.226;8.108;2023-04-06T16:34:41;12.00;76.40
4520;DHT22;2272;49.226;8.108;2023-04-06T16:37:08;11.90;76.50
4520;DHT22;2272;49.226;8.108;2023-04-06T16:39:35;11.70;77.80
4520;DHT22;2272;49.226;8.108;2023-04-06T16:42:02;11.70;78.50
4520;DHT22;2272;49.226;8.108;2023-04-06T16:44:29;11.60;80.50
4520;DHT22;2272;49.226;8.108;2023-04-06T16:47:00;11.40;81.40
4520;DHT22;2272;49.226;8.108;2023-04-06T16:49:27;11.40;83.10
4520;DHT22;2272;49.226;8.108;2023-04-06T16:51:54;11.30;84.50
4520;DHT22;2272;49.226;8.108;2023-04-06T16:54:24;11.20;84.20
4520;DHT22;2272;49.226;8.108;2023-04-06T16:56:51;11.10;85.00
4520;DHT22;2272;49.226;8.108;2023-04-06T16:59:18;11.00;85.60
4520;DHT22;2272;49.226;8.108;2023-04-06T17:01:45;10.90;86.50
4520;DHT22;2272;49.226;8.108;2023-04-06T17:04:15;10.90;87.80
4520;DHT22;2272;49.226;8.108;2023-04-06T17:06:42;10.80;89.20
4520;DHT22;2272;49.226;8.108;2023-04-06T17:09:09;10.70;90.10
4520;DHT22;2272;49.226;8.108;2023-04-06T17:11:37;10.60;90.70
4520;DHT22;2272;49.226;8.108;2023-04-06T17:14:06;10.50;91.60
4520;DHT22;2272;49.226;8.108;2023-04-06T17:16:37;10.30;92.50
4520;DHT22;2272;49.226;8.108;2023-04-06T17:19:07;10.20;93.20
4520;DHT22;2272;49.226;8.108;2023-04-06T17:21:38;10.10;94.00
4520;DHT22;2272;49.226;8.108;2023-04-06T17:24:06;10.00;94.40
4520;DHT22;2272;49.226;8.108;2023-04-06T17:26:33;9.90;95.60
4520;DHT22;2272;49.226;8.108;2023-04-06T17:29:00;9.70;96.90
4520;DHT22;2272;49.226;8.108;2023-04-06T17:31:33;9.60;96.90
4520;DHT22;2272;49.226;8.108;2023-04-06T17:34:01;9.50;97.90
4520;DHT22;2272;49.226;8.108;2023-04-06T17:36:28;9.40;98.80
4520;DHT22;2272;49.226;8.108;2023-04-06T17:38:58;9.20;99.90
4520;DHT22;2272;49.226;8.108;2023-04-06T17:41:26;9.10;99.90
4520;DHT22;2272;49.226;8.108;2023-04-06T17:43:58;9.00;99.90
4520;DHT22;2272;49.226;8.108;2023-04-06T17:46:25;8.90;99.90
4520;DHT22;2272;49.226;8.108;2023-04-06T17:48:51;8.90;99.90
4520;DHT22;2272;49.226;8.108;2023-04-06T17:51:19;8.90;99.90
4520;DHT22;2272;49.226;8.108;2023-04-06T17:53:49;8.90;99.90
4520;DHT22;2272;49.226;8.108;2023-04-06T17:56:20;8.80;99.90
4520;DHT22;2272;49.226;8.108;2023-04-06T17:58:49;8.80;99.90
4520;DHT22;2272;49.226;8.108;2023-04-06T18:01:20;8.70;99.90
4520;DHT22;2272;49.226;8.108;2023-04-06T18:03:47;8.60;99.90
4520;DHT22;2272;49.226;8.108;2023-04-06T18:06:15;8.60;99.90
4520;DHT22;2272;49.226;8.108;2023-04-06T18:08:42;8.60;99.90
4520;DHT22;2272;49.226;8.108;2023-04-06T18:11:14;8.50;99.90
4520;DHT22;2272;49.226;8.108;2023-04-06T18:14:06;8.50;99.90
4520;DHT22;2272;49.226;8.108;2023-04-06T18:16:35;8.40;99.90
4520;DHT22;2272;49.226;8.108;2023-04-06T18:19:02;8.40;99.90
4520;DHT22;2272;49.226;8.108;2023-04-06T18:21:30;8.30;99.90
4520;DHT22;2272;49.226;8.108;2023-04-06T18:23:57;8.30;99.90
4520;DHT22;2272;49.226;8.108;2023-04-06T18:26:24;8.20;99.90
4520;DHT22;2272;49.226;8.108;2023-04-06T18:28:51;8.20;99.90
4520;DHT22;2272;49.226;8.108;2023-04-06T18:31:19;8.10;99.90
4520;DHT22;2272;49.226;8.108;2023-04-06T18:33:47;8.10;99.90
4520;DHT22;2272;49.226;8.108;2023-04-06T18:36:14;8.10;99.90
4520;DHT22;2272;49.226;8.108;2023-04-06T18:38:42;8.00;99.90
4520;DHT22;2272;49.226;8.108;2023-04-06T18:41:09;8.00;99.90
4520;DHT22;2272;49.226;8.108;2023-04-06T18:43:36;8.00;99.90
4520;DHT22;2272;49.226;8.108;2023-04-06T18:46:14;8.00;99.90
4520;DHT22;2272;49.226;8.108;2023-04-06T18:48:43;7.90;99.90
4520;DHT22;2272;49.226;8.108;2023-04-06T18:51:09;7.90;99.90
4520;DHT22;2272;49.226;8.108;2023-04-06T18:53:36;7.90;99.90
4520;DHT22;2272;49.226;8.108;2023-04-06T18:56:12;7.80;99.90
4520;DHT22;2272;49.226;8.108;2023-04-06T18:58:39;7.80;99.90
4520;DHT22;2272;49.226;8.108;2023-04-06T19:01:07;7.70;99.90
4520;DHT22;2272;49.226;8.108;2023-04-06T19:03:34;7.70;99.90
4520;DHT22;2272;49.226;8.108;2023-04-06T19:06:03;7.70;99.90
4520;DHT22;2272;49.226;8.108;2023-04-06T19:08:30;7.70;99.90
4520;DHT22;2272;49.226;8.108;2023-04-06T19:10:57;7.60;99.90
4520;DHT22;2272;49.226;8.108;2023-04-06T19:13:24;7.60;99.90
4520;DHT22;2272;49.226;8.108;2023-04-06T19:15:53;7.60;99.90
4520;DHT22;2272;49.226;8.108;2023-04-06T19:18:19;7.50;99.90
4520;DHT22;2272;49.226;8.108;2023-04-06T19:20:46;7.50;99.90
4520;DHT22;2272;49.226;8.108;2023-04-06T19:23:15;7.50;99.90
4520;DHT22;2272;49.226;8.108;2023-04-06T19:25:45;7.50;99.90
4520;DHT22;2272;49.226;8.108;2023-04-06T19:28:12;7.40;99.90
4520;DHT22;2272;49.226;8.108;2023-04-06T19:30:41;7.50;99.90
4520;DHT22;2272;49.226;8.108;2023-04-06T19:33:09;7.40;99.90
4520;DHT22;2272;49.226;8.108;2023-04-06T19:35:36;7.30;99.90
4520;DHT22;2272;49.226;8.108;2023-04-06T19:38:03;7.40;99.90
4520;DHT22;2272;49.226;8.108;2023-04-06T19:40:32;7.30;99.90
4520;DHT22;2272;49.226;8.108;2023-04-06T19:42:59;7.30;99.90
4520;DHT22;2272;49.226;8.108;2023-04-06T19:45:27;7.30;99.90
4520;DHT22;2272;49.226;8.108;2023-04-06T19:47:54;7.30;99.90
4520;DHT22;2272;49.226;8.108;2023-04-06T19:50:21;7.30;99.90
4520;DHT22;2272;49.226;8.108;2023-04-06T19:52:48;7.30;99.90
4520;DHT22;2272;49.226;8.108;2023-04-06T19:55:17;7.30;99.90
4520;DHT22;2272;49.226;8.108;2023-04-06T19:57:46;7.30;99.90
4520;DHT22;2272;49.226;8.108;2023-04-06T20:00:13;7.30;99.90
4520;DHT22;2272;49.226;8.108;2023-04-06T20:02:40;7.20;99.90
4520;DHT22;2272;49.226;8.108;2023-04-06T20:05:08;7.20;99.90
4520;DHT22;2272;49.226;8.108;2023-04-06T20:07:34;7.30;99.90
4520;DHT22;2272;49.226;8.108;2023-04-06T20:10:02;7.20;99.90
4520;DHT22;2272;49.226;8.108;2023-04-06T20:12:29;7.20;99.90
4520;DHT22;2272;49.226;8.108;2023-04-06T20:14:58;7.20;99.90
4520;DHT22;2272;49.226;8.108;2023-04-06T20:17:26;7.20;99.90
4520;DHT22;2272;49.226;8.108;2023-04-06T20:19:53;7.20;99.90
4520;DHT22;2272;49.226;8.108;2023-04-06T20:22:20;7.20;99.90
4520;DHT22;2272;49.226;8.108;2023-04-06T20:24:47;7.20;99.90
4520;DHT22;2272;49.226;8.108;2023-04-06T20:27:15;7.20;99.90
4520;DHT22;2272;49.226;8.108;2023-04-06T20:29:44;7.20;99.90
4520;DHT22;2272;49.226;8.108;2023-04-06T20:35:30;7.20;99.90
4520;DHT22;2272;49.226;8.108;2023-04-06T20:44:24;7.20;99.90
4520;DHT22;2272;49.226;8.108;2023-04-06T20:46:52;7.20;99.90
4520;DHT22;2272;49.226;8.108;2023-04-06T20:49:19;7.20;99.90
4520;DHT22;2272;49.226;8.108;2023-04-06T20:51:49;7.20;99.90
4520;DHT22;2272;49.226;8.108;2023-04-06T20:55:04;7.20;99.90
4520;DHT22;2272;49.226;8.108;2023-04-06T21:01:12;7.20;99.90
4520;DHT22;2272;49.226;8.108;2023-04-06T21:03:39;7.20;99.90
4520;DHT22;2272;49.226;8.108;2023-04-06T21:06:06;7.20;99.90
4520;DHT22;2272;49.226;8.108;2023-04-06T21:08:35;7.20;99.90
4520;DHT22;2272;49.226;8.108;2023-04-06T21:11:02;7.20;99.90
4520;DHT22;2272;49.226;8.108;2023-04-06T21:13:30;7.20;99.90
4520;DHT22;2272;49.226;8.108;2023-04-06T21:15:57;7.30;99.90
4520;DHT22;2272;49.226;8.108;2023-04-06T21:18:24;7.20;99.90
4520;DHT22;2272;49.226;8.108;2023-04-06T21:20:51;7.20;99.90
4520;DHT22;2272;49.226;8.108;2023-04-06T21:23:18;7.30;99.90
4520;DHT22;2272;49.226;8.108;2023-04-06T21:26:07;7.30;99.90
4520;DHT22;2272;49.226;8.108;2023-04-06T21:28:51;7.30;99.90
4520;DHT22;2272;49.226;8.108;2023-04-06T21:31:18;7.30;99.90
4520;DHT22;2272;49.226;8.108;2023-04-06T21:34:10;7.20;99.90
4520;DHT22;2272;49.226;8.108;2023-04-06T21:43:23;7.20;99.90
4520;DHT22;2272;49.226;8.108;2023-04-06T21:45:50;7.20;99.90
4520;DHT22;2272;49.226;8.108;2023-04-06T21:48:22;7.20;99.90
4520;DHT22;2272;49.226;8.108;2023-04-06T23:11:40;7.10;99.90
4520;DHT22;2272;49.226;8.108;2023-04-06T23:14:07;7.00;99.90
4520;DHT22;2272;49.226;8.108;2023-04-06T23:16:33;7.00;99.90
4520;DHT22;2272;49.226;8.108;2023-04-06T23:19:00;7.00;99.90
4520;DHT22;2272;49.226;8.108;2023-04-06T23:21:28;7.00;99.90
4520;DHT22;2272;49.226;8.108;2023-04-06T23:23:57;7.00;99.90
4520;DHT22;2272;49.226;8.108;2023-04-06T23:26:27;6.90;99.90
4520;DHT22;2272;49.226;8.108;2023-04-06T23:28:55;6.90;99.90
4520;DHT22;2272;49.226;8.108;2023-04-06T23:31:22;6.90;99.90
4520;DHT22;2272;49.226;8.108;2023-04-06T23:33:48;6.80;99.90
4520;DHT22;2272;49.226;8.108;2023-04-06T23:36:21;6.80;99.90
4520;DHT22;2272;49.226;8.108;2023-04-06T23:38:48;6.90;99.90
4520;DHT22;2272;49.226;8.108;2023-04-06T23:41:14;6.80;99.90
4520;DHT22;2272;49.226;8.108;2023-04-06T23:43:41;6.90;99.90
4520;DHT22;2272;49.226;8.108;2023-04-06T23:46:14;6.90;99.90
4520;DHT22;2272;49.226;8.108;2023-04-06T23:48:41;6.80;99.90
4520;DHT22;2272;49.226;8.108;2023-04-06T23:51:18;6.80;99.90
4520;DHT22;2272;49.226;8.108;2023-04-06T23:53:53;6.80;99.90
4520;DHT22;2272;49.226;8.108;2023-04-06T23:57:02;6.70;99.90
4520;DHT22;2272;49.226;8.108;2023-04-06T23:59:42;6.70;99.90
